Time;durP1;ratioP1;P1;durP2;ratioP2;P2;SDS_P1;SDS_P2;PMS_P1;PMS_P2;Temp;Humidity;BMP_temperature;BMP_pressure;BME280_temperature;BME280_humidity;BME280_pressure;Samples;Min_cycle;Max_cycle;Signal;HPM_P1;HPM_P2
2021/09/07 00:02:05;;;;;;;9.75;6.15;;;;;;;14.64;80.87;97294.63;5001772;28;20081;-68
2021/09/07 00:04:30;;;;;;;10.88;6.97;;;;;;;14.67;81.29;97293.88;5005073;28;20053;-63
2021/09/07 00:06:59;;;;;;;11.73;7.05;;;;;;;14.65;81.36;97291.50;5004212;28;20042;-65
2021/09/07 00:09:25;;;;;;;11.82;6.38;;;;;;;14.65;81.54;97291.50;4998005;28;20128;-65
2021/09/07 00:11:50;;;;;;;10.05;6.85;;;;;;;14.64;81.84;97292.69;4996917;28;20193;-65
2021/09/07 00:14:16;;;;;;;12.25;6.70;;;;;;;14.58;82.01;97296.94;4998811;28;20052;-66
2021/09/07 00:16:41;;;;;;;12.60;6.43;;;;;;;14.56;81.77;97292.97;5004208;28;20052;-66
2021/09/07 00:19:08;;;;;;;11.00;6.93;;;;;;;14.47;82.69;97299.56;4998695;28;20092;-67
2021/09/07 00:21:33;;;;;;;11.13;7.05;;;;;;;14.37;82.82;97296.69;5000399;28;20077;-65
2021/09/07 00:23:59;;;;;;;10.73;6.60;;;;;;;14.34;83.31;97296.28;4995302;28;20124;-65
2021/09/07 00:26:24;;;;;;;9.77;6.50;;;;;;;14.25;83.62;97300.50;4974368;28;20622;-64
2021/09/07 00:28:49;;;;;;;12.07;7.30;;;;;;;14.18;83.14;97294.91;4984076;28;20042;-65
2021/09/07 00:31:15;;;;;;;10.77;6.93;;;;;;;14.11;84.31;97303.88;4976706;28;20050;-65
2021/09/07 00:33:40;;;;;;;9.85;6.45;;;;;;;14.04;84.34;97306.53;4983639;28;20070;-64
2021/09/07 00:36:06;;;;;;;11.23;6.95;;;;;;;13.97;84.64;97304.50;4975230;28;20034;-64
2021/09/07 00:38:31;;;;;;;12.73;7.38;;;;;;;13.93;85.26;97300.91;4984286;28;20050;-64
2021/09/07 00:40:56;;;;;;;10.30;6.93;;;;;;;13.76;85.52;97302.28;5002997;28;20120;-64
2021/09/07 00:43:22;;;;;;;13.98;7.65;;;;;;;13.55;87.12;97303.53;4991126;28;20406;-65
2021/09/07 00:45:48;;;;;;;13.88;6.93;;;;;;;13.40;87.87;97299.00;5002851;28;20404;-64
2021/09/07 00:48:13;;;;;;;11.30;7.70;;;;;;;13.26;88.35;97296.00;4991575;28;20038;-65
2021/09/07 00:50:38;;;;;;;12.15;7.55;;;;;;;12.94;90.81;97288.03;5003372;28;20048;-64
2021/09/07 00:53:04;;;;;;;12.73;7.82;;;;;;;12.85;91.91;97284.75;4994415;28;20041;-68
2021/09/07 00:55:31;;;;;;;14.93;8.02;;;;;;;12.62;93.30;97294.59;5002854;28;20045;-67
2021/09/07 00:57:56;;;;;;;14.52;8.15;;;;;;;12.50;94.59;97289.25;5002828;28;20074;-65
2021/09/07 01:00:22;;;;;;;10.55;7.15;;;;;;;12.60;94.68;97291.41;4996988;28;21504;-65
2021/09/07 01:02:48;;;;;;;11.43;7.60;;;;;;;12.78;94.03;97286.22;5002431;28;20402;-67
2021/09/07 01:05:14;;;;;;;15.10;7.72;;;;;;;12.93;93.12;97292.75;4998126;28;20108;-64
2021/09/07 01:07:39;;;;;;;10.23;6.97;;;;;;;13.06;92.40;97295.31;5001595;28;20128;-64
2021/09/07 01:10:06;;;;;;;15.02;7.68;;;;;;;13.11;91.25;97298.53;4992701;28;20147;-65
2021/09/07 01:12:33;;;;;;;11.73;6.78;;;;;;;13.11;91.28;97295.00;5000485;28;20065;-64
2021/09/07 01:14:58;;;;;;;10.90;6.80;;;;;;;13.17;91.08;97291.56;5002328;28;20050;-65
2021/09/07 01:17:25;;;;;;;10.10;7.13;;;;;;;13.17;90.29;97293.53;4996259;28;20620;-64
2021/09/07 01:19:50;;;;;;;11.40;7.28;;;;;;;13.02;90.10;97284.25;4999506;28;20414;-64
2021/09/07 01:22:18;;;;;;;11.15;6.90;;;;;;;13.03;90.96;97290.53;4995350;28;20042;-66
2021/09/07 01:24:44;;;;;;;13.10;6.60;;;;;;;12.88;91.10;97279.31;5002814;28;20038;-63
2021/09/07 01:27:09;;;;;;;14.52;7.80;;;;;;;12.90;91.88;97287.19;4993450;28;20426;-63
2021/09/07 01:29:37;;;;;;;11.57;6.85;;;;;;;12.86;91.68;97284.38;5000845;28;20078;-65
2021/09/07 01:32:06;;;;;;;11.25;7.18;;;;;;;12.72;91.12;97286.88;4997372;28;20130;-70
2021/09/07 01:34:32;;;;;;;12.68;6.85;;;;;;;12.73;92.31;97281.03;5000376;28;20507;-64
2021/09/07 01:36:57;;;;;;;10.45;6.32;;;;;;;12.79;92.51;97285.06;5000823;28;20084;-65
2021/09/07 01:39:24;;;;;;;12.90;7.15;;;;;;;12.85;91.98;97290.25;4990109;28;20077;-64
2021/09/07 01:41:51;;;;;;;11.13;7.10;;;;;;;12.88;91.81;97282.06;4994452;28;20043;-64
2021/09/07 01:44:17;;;;;;;11.55;7.47;;;;;;;12.83;91.80;97285.09;4998750;28;20054;-64
2021/09/07 01:46:44;;;;;;;13.80;6.85;;;;;;;12.81;91.45;97290.97;5001467;28;20042;-65
2021/09/07 01:49:10;;;;;;;13.80;7.65;;;;;;;12.82;91.47;97292.56;4992925;28;20068;-65
2021/09/07 01:51:41;;;;;;;15.30;7.68;;;;;;;12.78;91.90;97283.47;5000626;28;20046;-65
2021/09/07 01:54:08;;;;;;;12.70;6.72;;;;;;;12.65;91.32;97278.53;4988355;28;20058;-65
2021/09/07 01:56:34;;;;;;;13.38;8.13;;;;;;;12.44;90.85;97285.22;5004336;28;20048;-65
2021/09/07 01:59:00;;;;;;;12.45;7.18;;;;;;;12.37;92.59;97277.66;5003117;28;20050;-65
2021/09/07 02:01:26;;;;;;;10.40;7.00;;;;;;;12.39;93.05;97280.03;5007369;28;20048;-65
2021/09/07 02:03:52;;;;;;;10.90;7.57;;;;;;;12.45;92.74;97269.53;4999805;28;20053;-65
2021/09/07 02:06:17;;;;;;;15.80;7.45;;;;;;;12.43;92.72;97270.69;4997402;28;20046;-65
2021/09/07 02:08:43;;;;;;;11.98;6.93;;;;;;;12.41;92.64;97273.00;4993236;28;20045;-65
2021/09/07 02:11:09;;;;;;;11.77;6.95;;;;;;;12.43;92.80;97270.69;4986309;28;20042;-65
2021/09/07 02:13:34;;;;;;;13.73;7.25;;;;;;;12.30;92.52;97280.25;4994108;28;20046;-65
2021/09/07 02:16:00;;;;;;;14.88;7.80;;;;;;;12.12;92.92;97276.34;4993094;28;20132;-65
2021/09/07 02:18:25;;;;;;;14.00;7.75;;;;;;;12.00;93.86;97282.81;4994448;28;20059;-64
2021/09/07 02:20:50;;;;;;;14.50;7.93;;;;;;;11.99;95.22;97270.22;5000221;28;20072;-65
2021/09/07 02:23:16;;;;;;;12.73;7.68;;;;;;;12.05;95.56;97268.78;4993154;28;20042;-65
2021/09/07 02:25:41;;;;;;;13.27;8.15;;;;;;;12.07;95.14;97271.97;4998325;28;20102;-65
2021/09/07 02:28:07;;;;;;;11.15;7.35;;;;;;;12.25;95.18;97264.06;4999549;28;20038;-65
2021/09/07 02:30:32;;;;;;;13.70;8.00;;;;;;;12.27;94.23;97271.97;5007603;28;20570;-65
2021/09/07 02:32:59;;;;;;;11.85;6.90;;;;;;;12.21;93.24;97265.97;5000711;28;20061;-64
2021/09/07 02:35:29;;;;;;;13.95;8.18;;;;;;;11.81;94.03;97265.16;4985303;28;20046;-64
2021/09/07 02:37:54;;;;;;;13.20;7.78;;;;;;;11.28;97.92;97262.84;4999263;28;20111;-64
2021/09/07 02:40:20;;;;;;;12.55;7.80;;;;;;;11.32;99.03;97271.16;4987055;28;20038;-66
2021/09/07 02:42:46;;;;;;;14.02;7.68;;;;;;;11.47;98.37;97264.06;4997677;28;20038;-65
2021/09/07 02:45:12;;;;;;;15.43;7.57;;;;;;;11.52;98.60;97261.00;4987045;28;20573;-65
2021/09/07 02:47:40;;;;;;;13.55;7.30;;;;;;;11.63;98.72;97258.50;4999321;28;20049;-65
2021/09/07 02:50:11;;;;;;;14.25;7.95;;;;;;;11.84;97.54;97258.94;4992866;28;20045;-66
2021/09/07 02:52:36;;;;;;;13.38;8.65;;;;;;;11.91;96.70;97263.03;5000663;28;20046;-65
2021/09/07 02:55:04;;;;;;;13.13;7.97;;;;;;;11.81;96.24;97261.59;5000455;28;20407;-64
2021/09/07 02:57:29;;;;;;;12.60;8.07;;;;;;;11.80;97.05;97252.59;5007534;28;20050;-65
2021/09/07 02:59:56;;;;;;;15.82;8.82;;;;;;;11.81;97.21;97264.34;5009241;28;20056;-66
2021/09/07 03:02:22;;;;;;;18.30;8.35;;;;;;;11.67;97.56;97248.41;4993972;28;21536;-66
2021/09/07 03:04:47;;;;;;;13.77;8.25;;;;;;;11.47;96.83;97251.13;4997685;28;20044;-67
2021/09/07 03:07:12;;;;;;;13.38;8.45;;;;;;;11.27;97.10;97261.25;4995723;28;20034;-66
2021/09/07 03:09:38;;;;;;;16.27;7.95;;;;;;;11.21;99.18;97256.41;4989331;28;20049;-66
2021/09/07 03:12:04;;;;;;;11.55;7.22;;;;;;;11.19;98.54;97250.50;4995671;28;20049;-63
2021/09/07 03:14:29;;;;;;;13.55;8.65;;;;;;;11.19;98.69;97248.53;4996657;28;20049;-64
2021/09/07 03:16:55;;;;;;;12.77;7.30;;;;;;;11.27;98.86;97244.81;5000728;28;20046;-66
2021/09/07 03:19:20;;;;;;;13.40;8.23;;;;;;;11.41;99.26;97233.34;4983802;28;20041;-67
2021/09/07 03:21:45;;;;;;;12.10;7.72;;;;;;;11.55;98.14;97237.56;4989562;28;20037;-66
2021/09/07 03:24:11;;;;;;;14.65;8.45;;;;;;;11.60;97.39;97237.28;4994066;28;20041;-66
2021/09/07 03:26:36;;;;;;;12.65;7.68;;;;;;;11.63;96.51;97242.03;4998785;28;20058;-67
2021/09/07 03:29:02;;;;;;;13.43;7.53;;;;;;;11.63;96.27;97236.53;4993278;28;20100;-63
2021/09/07 03:31:28;;;;;;;13.55;7.75;;;;;;;11.65;96.33;97239.75;4993678;28;20046;-66
2021/09/07 03:33:54;;;;;;;14.10;7.72;;;;;;;11.68;96.51;97230.78;5000155;28;20139;-66
2021/09/07 03:36:19;;;;;;;12.70;8.13;;;;;;;11.67;96.10;97232.72;4993078;28;20557;-67
2021/09/07 03:38:45;;;;;;;15.43;8.68;;;;;;;11.69;95.89;97226.88;4996549;28;20579;-66
2021/09/07 03:41:12;;;;;;;11.93;7.35;;;;;;;11.74;95.30;97229.34;4996275;28;20144;-66
2021/09/07 03:43:37;;;;;;;11.90;7.43;;;;;;;11.64;95.84;97232.66;4991979;28;20050;-65
2021/09/07 03:46:05;;;;;;;17.23;8.43;;;;;;;11.56;96.09;97231.72;4993246;28;20133;-64
2021/09/07 03:48:30;;;;;;;14.98;9.27;;;;;;;11.53;97.03;97239.88;4964272;28;20073;-66
2021/09/07 03:50:56;;;;;;;14.52;8.70;;;;;;;11.51;97.36;97240.22;4986317;28;20494;-66
2021/09/07 03:53:21;;;;;;;17.20;9.15;;;;;;;11.59;97.26;97239.22;4993768;28;20462;-66
2021/09/07 03:55:47;;;;;;;16.33;9.38;;;;;;;11.58;96.46;97248.59;4994747;28;20049;-65
2021/09/07 03:58:12;;;;;;;15.88;8.88;;;;;;;11.65;96.52;97245.22;4983914;28;20458;-66
2021/09/07 04:00:38;;;;;;;14.90;8.35;;;;;;;11.69;96.55;97245.31;4997518;28;20054;-65
2021/09/07 04:03:12;;;;;;;12.95;7.82;;;;;;;11.46;95.83;97251.47;4986678;28;20065;-63
2021/09/07 04:05:38;;;;;;;14.23;9.10;;;;;;;11.24;95.80;97245.53;4995587;28;20380;-66
2021/09/07 04:08:04;;;;;;;13.98;8.07;;;;;;;11.23;97.44;97246.66;4991809;28;20048;-63
2021/09/07 04:10:29;;;;;;;16.88;8.25;;;;;;;11.26;98.54;97256.13;4994579;28;20541;-66
2021/09/07 04:12:54;;;;;;;16.35;8.50;;;;;;;11.20;97.66;97246.56;4988185;28;20074;-66
2021/09/07 04:15:20;;;;;;;11.88;8.00;;;;;;;11.28;98.40;97248.34;4989051;28;20042;-64
2021/09/07 04:17:46;;;;;;;17.42;8.80;;;;;;;11.43;97.80;97249.44;4994882;28;20046;-64
2021/09/07 04:20:11;;;;;;;18.08;9.18;;;;;;;11.46;97.52;97254.22;4984884;28;20125;-65
2021/09/07 04:22:37;;;;;;;15.35;9.43;;;;;;;11.40;97.76;97250.97;4988568;28;20051;-65
2021/09/07 04:25:03;;;;;;;14.85;8.55;;;;;;;11.47;97.82;97251.13;4984667;28;20046;-63
2021/09/07 04:27:29;;;;;;;16.70;9.48;;;;;;;11.46;97.58;97252.25;4995426;28;20046;-66
2021/09/07 04:29:54;;;;;;;13.13;8.43;;;;;;;11.39;97.89;97252.09;4990376;28;20128;-65
2021/09/07 04:32:20;;;;;;;15.20;8.80;;;;;;;11.28;97.18;97254.63;4989963;28;20073;-65
2021/09/07 04:34:45;;;;;;;14.45;9.45;;;;;;;10.96;98.76;97256.63;4988096;28;20052;-65
2021/09/07 04:37:10;;;;;;;15.90;9.20;;;;;;;10.75;99.96;97250.63;4985198;28;20096;-66
2021/09/07 04:39:36;;;;;;;16.27;9.05;;;;;;;10.69;100.00;97250.88;4996858;28;20038;-67
2021/09/07 04:42:02;;;;;;;14.27;9.40;;;;;;;10.78;100.00;97255.41;4998159;28;20041;-66
2021/09/07 04:44:28;;;;;;;15.13;10.00;;;;;;;10.93;100.00;97251.03;4968706;28;20046;-66
2021/09/07 04:46:53;;;;;;;14.77;9.10;;;;;;;10.96;100.00;97253.88;4996215;28;20038;-67
2021/09/07 04:49:19;;;;;;;14.57;9.07;;;;;;;10.96;100.00;97250.34;4991611;28;20459;-65
2021/09/07 04:51:44;;;;;;;14.20;9.48;;;;;;;11.01;100.00;97248.13;5000773;28;20465;-65
2021/09/07 04:54:09;;;;;;;14.35;9.10;;;;;;;11.12;100.00;97253.06;4996638;28;20046;-65
2021/09/07 04:56:35;;;;;;;15.57;9.40;;;;;;;11.21;100.00;97268.16;5001780;28;20046;-65
2021/09/07 04:59:00;;;;;;;15.48;9.20;;;;;;;10.99;98.83;97268.84;5003419;28;20046;-66
2021/09/07 05:01:26;;;;;;;14.07;9.05;;;;;;;10.68;100.00;97276.69;4995635;28;20056;-66
2021/09/07 05:03:51;;;;;;;15.18;8.63;;;;;;;10.76;100.00;97280.41;4993583;28;20041;-64
2021/09/07 05:06:16;;;;;;;14.27;8.90;;;;;;;10.85;100.00;97280.22;4990070;28;20069;-65
2021/09/07 05:08:42;;;;;;;16.90;9.40;;;;;;;10.67;100.00;97283.31;4980470;28;20105;-64
2021/09/07 05:11:07;;;;;;;16.73;10.10;;;;;;;10.33;100.00;97279.31;4985942;28;20062;-65
2021/09/07 05:13:33;;;;;;;15.90;10.23;;;;;;;10.10;100.00;97290.81;5005194;28;20053;-65
2021/09/07 05:15:58;;;;;;;19.38;9.95;;;;;;;10.27;100.00;97273.25;5009381;28;20049;-65
2021/09/07 05:18:24;;;;;;;15.82;10.48;;;;;;;10.62;100.00;97283.56;4994442;28;21043;-65
2021/09/07 05:20:49;;;;;;;15.18;8.30;;;;;;;11.43;100.00;97283.19;4987311;28;20444;-65
2021/09/07 05:23:15;;;;;;;15.63;8.85;;;;;;;12.55;99.60;97285.41;4983401;28;20074;-65
2021/09/07 05:25:40;;;;;;;15.15;8.73;;;;;;;13.80;89.03;97286.59;4994990;28;20037;-65
2021/09/07 05:28:06;;;;;;;14.50;7.60;;;;;;;14.63;82.29;97287.56;4989885;28;20042;-65
2021/09/07 05:30:31;;;;;;;12.35;7.43;;;;;;;15.43;77.38;97290.56;4989539;28;20145;-66
2021/09/07 05:32:57;;;;;;;14.07;7.40;;;;;;;15.75;74.04;97283.69;5001659;28;20103;-66
2021/09/07 05:35:22;;;;;;;13.10;6.72;;;;;;;16.66;71.24;97282.81;4988536;28;20725;-65
2021/09/07 05:37:48;;;;;;;13.35;6.63;;;;;;;17.45;66.54;97280.88;5003176;28;20056;-66
2021/09/07 05:40:14;;;;;;;12.07;6.60;;;;;;;17.88;64.13;97280.00;4996168;28;20569;-64
2021/09/07 05:42:44;;;;;;;12.88;6.68;;;;;;;18.45;63.73;97290.06;4997675;28;20044;-66
2021/09/07 05:45:13;;;;;;;12.65;6.78;;;;;;;18.82;62.15;97283.91;4997382;28;20406;-66
2021/09/07 05:47:38;;;;;;;10.80;6.72;;;;;;;19.33;59.93;97280.75;4983226;28;20053;-65
2021/09/07 05:50:05;;;;;;;13.23;7.07;;;;;;;19.13;59.60;97289.63;4992010;28;20053;-64
2021/09/07 05:52:31;;;;;;;11.77;6.13;;;;;;;19.41;58.22;97285.00;4998215;28;20529;-66
2021/09/07 05:54:56;;;;;;;11.90;7.13;;;;;;;19.82;57.07;97287.00;4993658;28;20034;-66
2021/09/07 05:57:22;;;;;;;11.55;6.93;;;;;;;20.05;56.05;97289.94;4994841;28;20780;-66
2021/09/07 05:59:47;;;;;;;13.75;8.50;;;;;;;19.89;56.76;97300.06;4994111;28;20038;-65
2021/09/07 06:02:13;;;;;;;13.57;7.35;;;;;;;19.97;56.20;97298.75;4990035;28;20034;-66
2021/09/07 06:04:38;;;;;;;12.18;7.30;;;;;;;20.13;56.15;97306.53;4993552;28;20034;-67
2021/09/07 06:07:04;;;;;;;14.05;7.22;;;;;;;19.87;56.62;97317.16;4988991;28;20195;-66
2021/09/07 06:09:29;;;;;;;15.45;7.53;;;;;;;20.25;55.06;97305.97;4997279;28;20057;-66
2021/09/07 06:11:54;;;;;;;14.07;7.10;;;;;;;20.36;55.12;97303.06;5000884;28;20048;-66
2021/09/07 06:14:20;;;;;;;12.30;7.40;;;;;;;20.40;55.20;97312.94;4987754;28;20406;-65
2021/09/07 06:16:45;;;;;;;14.57;6.82;;;;;;;20.35;55.74;97309.84;4993876;28;20448;-65
2021/09/07 06:19:11;;;;;;;12.48;7.30;;;;;;;21.00;53.56;97304.97;4986813;28;20041;-66
2021/09/07 06:21:36;;;;;;;11.93;6.93;;;;;;;20.65;54.62;97300.72;4997735;28;20054;-66
2021/09/07 06:24:02;;;;;;;14.55;6.82;;;;;;;20.25;55.67;97301.19;4988588;28;20038;-66
2021/09/07 06:26:27;;;;;;;11.15;6.38;;;;;;;20.63;54.70;97303.13;4979008;28;20399;-65
2021/09/07 06:28:53;;;;;;;13.73;7.22;;;;;;;20.58;54.47;97307.16;5001808;28;20060;-66
2021/09/07 06:31:19;;;;;;;12.52;7.20;;;;;;;20.62;54.47;97313.47;4993394;28;20049;-66
2021/09/07 06:33:44;;;;;;;10.20;7.22;;;;;;;21.10;54.15;97308.00;4999647;28;20045;-65
2021/09/07 06:36:09;;;;;;;11.75;7.78;;;;;;;21.93;51.81;97315.75;4986569;28;20034;-66
2021/09/07 06:38:35;;;;;;;11.45;6.75;;;;;;;22.14;50.46;97320.91;5000180;28;20046;-66
2021/09/07 06:41:00;;;;;;;10.43;6.88;;;;;;;23.05;48.02;97323.44;5001312;28;20065;-66
2021/09/07 06:43:26;;;;;;;12.02;6.97;;;;;;;24.17;45.63;97326.22;4991734;28;20048;-65
2021/09/07 06:45:51;;;;;;;12.40;7.45;;;;;;;24.70;43.81;97318.28;4999589;28;20446;-67
2021/09/07 06:48:16;;;;;;;10.18;6.65;;;;;;;24.33;43.93;97320.56;4981941;28;20053;-63
2021/09/07 06:50:42;;;;;;;10.50;7.00;;;;;;;24.04;45.71;97324.16;5000678;28;20045;-66
2021/09/07 06:53:07;;;;;;;13.23;6.53;;;;;;;24.56;44.56;97313.91;4977445;28;20053;-62
2021/09/07 06:55:33;;;;;;;11.70;7.18;;;;;;;24.42;43.60;97319.91;4997032;28;20046;-65
2021/09/07 06:57:58;;;;;;;10.82;7.22;;;;;;;24.77;43.69;97322.91;4993992;28;20044;-65
2021/09/07 07:00:24;;;;;;;12.18;7.05;;;;;;;24.21;45.27;97321.28;4992041;28;20085;-64
2021/09/07 07:02:50;;;;;;;11.18;7.63;;;;;;;23.30;47.57;97327.66;4990132;28;20056;-66
2021/09/07 07:05:16;;;;;;;10.57;7.47;;;;;;;22.39;50.22;97324.47;4993239;28;20116;-66
2021/09/07 07:07:42;;;;;;;13.65;7.82;;;;;;;21.23;53.71;97324.91;4998925;28;20610;-66
2021/09/07 07:10:08;;;;;;;13.23;8.10;;;;;;;20.58;56.70;97323.84;4994107;28;20128;-66
2021/09/07 07:12:33;;;;;;;15.13;8.82;;;;;;;20.40;57.37;97331.63;4995443;28;20050;-66
2021/09/07 07:14:59;;;;;;;16.98;7.97;;;;;;;20.08;58.63;97327.25;4989448;28;20372;-65
2021/09/07 07:17:24;;;;;;;15.68;8.75;;;;;;;19.91;59.95;97337.34;4993284;28;20376;-66
2021/09/07 07:19:51;;;;;;;13.82;8.65;;;;;;;19.53;60.94;97334.50;5000255;28;20038;-66
2021/09/07 07:22:16;;;;;;;13.23;8.85;;;;;;;19.32;62.33;97337.47;4990403;28;20076;-66
2021/09/07 07:24:42;;;;;;;15.13;8.73;;;;;;;19.25;63.59;97330.00;4990447;28;20187;-68
2021/09/07 07:27:07;;;;;;;16.10;9.55;;;;;;;20.02;60.70;97332.47;4985753;28;20098;-66
2021/09/07 07:29:32;;;;;;;15.68;9.38;;;;;;;19.29;62.71;97331.53;5001674;28;20049;-67
2021/09/07 07:31:58;;;;;;;14.40;9.13;;;;;;;19.29;63.46;97339.88;4994258;28;20769;-67
2021/09/07 07:34:23;;;;;;;14.23;9.15;;;;;;;19.99;62.11;97336.06;4987487;28;20069;-66
2021/09/07 07:36:53;;;;;;;14.13;8.45;;;;;;;19.77;62.34;97327.19;4992897;28;20038;-66
2021/09/07 07:39:19;;;;;;;14.75;8.57;;;;;;;20.50;60.45;97327.13;4993912;28;20041;-66
2021/09/07 07:41:44;;;;;;;13.93;8.93;;;;;;;21.12;57.13;97322.28;5000050;28;20044;-66
2021/09/07 07:44:09;;;;;;;12.52;8.85;;;;;;;20.51;59.10;97329.50;4986065;28;20038;-66
2021/09/07 07:46:35;;;;;;;14.13;8.60;;;;;;;21.49;56.74;97326.91;4991365;28;20045;-67
2021/09/07 07:49:00;;;;;;;13.40;8.10;;;;;;;22.49;53.97;97327.03;4998800;28;20107;-67
2021/09/07 07:51:26;;;;;;;14.35;8.60;;;;;;;20.87;57.65;97326.25;4990919;28;20191;-67
2021/09/07 07:53:51;;;;;;;15.18;8.20;;;;;;;21.81;55.88;97321.97;4995506;28;20052;-67
2021/09/07 07:56:16;;;;;;;19.45;9.45;;;;;;;21.51;56.88;97332.81;4994064;28;20503;-67
2021/09/07 07:58:42;;;;;;;15.80;8.25;;;;;;;21.58;55.15;97329.91;5000698;28;20037;-66
2021/09/07 08:01:07;;;;;;;21.95;14.68;;;;;;;21.62;56.08;97341.00;4994394;28;20132;-67
2021/09/07 08:03:33;;;;;;;12.52;7.65;;;;;;;21.52;56.15;97337.19;5006725;28;20046;-66
2021/09/07 08:05:59;;;;;;;17.60;9.07;;;;;;;21.96;53.89;97340.00;5000249;28;20046;-67
2021/09/07 08:08:25;;;;;;;11.07;7.90;;;;;;;21.73;56.42;97341.63;5000467;28;20124;-66
2021/09/07 08:10:50;;;;;;;14.13;8.43;;;;;;;23.99;50.34;97349.09;5003705;28;20041;-66
2021/09/07 08:13:16;;;;;;;15.60;8.35;;;;;;;24.92;47.26;97348.44;4996898;28;20045;-66
2021/09/07 08:15:41;;;;;;;13.35;7.82;;;;;;;24.60;47.47;97350.22;5002817;28;20403;-67
2021/09/07 08:18:07;;;;;;;12.18;7.63;;;;;;;25.34;45.70;97340.75;4999964;28;20179;-67
2021/09/07 08:20:33;;;;;;;12.93;7.57;;;;;;;25.71;44.54;97346.75;4999767;28;20541;-67
2021/09/07 08:23:00;;;;;;;13.43;8.40;;;;;;;25.35;44.92;97345.13;4999391;28;20072;-67
2021/09/07 08:25:26;;;;;;;13.45;7.95;;;;;;;24.17;46.97;97346.59;4995398;28;20046;-67
2021/09/07 08:27:52;;;;;;;12.30;7.82;;;;;;;23.27;49.84;97351.66;5009117;28;20045;-66
2021/09/07 08:30:17;;;;;;;12.65;8.25;;;;;;;23.37;49.79;97351.81;5004801;28;20411;-66
2021/09/07 08:32:43;;;;;;;10.73;7.32;;;;;;;24.15;48.85;97348.25;4998719;28;20048;-67
2021/09/07 08:35:10;;;;;;;12.90;7.78;;;;;;;24.31;48.05;97347.41;4997238;28;20048;-67
2021/09/07 08:37:36;;;;;;;12.55;7.97;;;;;;;24.78;46.84;97344.09;5009524;28;20522;-66
2021/09/07 08:40:04;;;;;;;11.15;7.57;;;;;;;25.30;46.07;97348.50;4996119;28;20057;-66
2021/09/07 08:42:32;;;;;;;18.13;8.57;;;;;;;26.27;43.78;97348.03;5000352;28;20085;-67
2021/09/07 08:44:58;;;;;;;13.30;7.18;;;;;;;27.08;41.72;97336.97;5000571;28;20042;-67
2021/09/07 08:47:24;;;;;;;13.20;7.45;;;;;;;26.03;44.40;97344.88;4998860;28;20057;-67
2021/09/07 08:49:50;;;;;;;13.82;7.47;;;;;;;25.70;44.70;97344.41;5012260;28;20099;-67
2021/09/07 08:52:18;;;;;;;12.48;7.93;;;;;;;24.73;47.49;97339.81;4995111;28;20077;-67
2021/09/07 08:54:44;;;;;;;11.68;7.88;;;;;;;24.59;48.17;97337.44;4999132;28;20129;-67
2021/09/07 08:57:10;;;;;;;13.77;8.27;;;;;;;24.96;47.33;97341.50;4996926;28;20041;-66
2021/09/07 08:59:36;;;;;;;12.88;7.60;;;;;;;25.08;47.36;97344.75;5000240;28;20046;-67
2021/09/07 09:02:15;;;;;;;13.25;8.40;;;;;;;23.76;49.60;97339.66;5001186;28;20547;-67
2021/09/07 09:04:45;;;;;;;18.00;8.57;;;;;;;21.63;55.22;97341.81;5001153;28;20088;-66
2021/09/07 09:07:26;;;;;;;13.07;8.57;;;;;;;20.50;59.95;97333.47;4993682;28;20033;-66
2021/09/07 09:09:53;;;;;;;12.35;8.02;;;;;;;20.45;60.41;97342.28;5001318;28;20043;-66
2021/09/07 09:12:35;;;;;;;11.90;7.95;;;;;;;21.76;56.86;97339.97;4993439;28;20467;-67
2021/09/07 09:15:01;;;;;;;14.15;7.57;;;;;;;23.90;51.86;97341.31;5001669;28;20068;-67
2021/09/07 09:17:32;;;;;;;12.57;7.10;;;;;;;25.27;47.70;97340.97;4998089;28;20069;-67
2021/09/07 09:20:04;;;;;;;15.52;8.05;;;;;;;24.22;48.84;97336.88;5001896;28;20048;-68
2021/09/07 09:22:41;;;;;;;13.63;8.43;;;;;;;23.21;51.76;97339.44;5000921;28;20066;-66
2021/09/07 09:25:26;;;;;;;10.48;6.72;;;;;;;24.71;48.74;97331.06;5000074;28;20099;-68
2021/09/07 09:27:54;;;;;;;12.90;7.30;;;;;;;24.79;48.27;97331.63;5003542;28;21324;-66
2021/09/07 09:30:27;;;;;;;13.02;6.70;;;;;;;25.06;47.91;97331.19;4997114;28;20120;-68
2021/09/07 09:32:54;;;;;;;12.52;7.43;;;;;;;23.40;51.68;97337.75;4998517;28;20137;-66
2021/09/07 09:35:20;;;;;;;11.32;7.18;;;;;;;23.97;49.28;97337.56;4996439;28;20046;-68
2021/09/07 09:37:56;;;;;;;13.93;7.80;;;;;;;21.57;57.25;97345.09;5001628;28;20054;-67
2021/09/07 09:40:22;;;;;;;11.95;7.40;;;;;;;22.83;53.05;97339.88;4997647;28;20038;-66
2021/09/07 09:42:50;;;;;;;13.73;7.22;;;;;;;24.36;49.98;97332.88;5002712;28;20387;-67
2021/09/07 09:45:16;;;;;;;16.10;6.82;;;;;;;24.32;47.90;97337.78;4996390;28;20071;-66
2021/09/07 09:47:52;;;;;;;11.07;6.22;;;;;;;26.16;45.56;97330.00;4999895;28;20041;-67
2021/09/07 09:50:19;;;;;;;9.95;6.38;;;;;;;25.29;46.65;97338.50;4996484;28;20054;-68
2021/09/07 09:52:46;;;;;;;10.57;5.75;;;;;;;25.31;47.45;97329.66;4996495;28;20048;-68
2021/09/07 09:55:14;;;;;;;10.07;5.60;;;;;;;27.48;42.01;97326.19;4995743;28;20555;-66
2021/09/07 09:57:40;;;;;;;10.90;6.43;;;;;;;25.75;45.43;97329.81;4996049;28;20065;-66
2021/09/07 10:00:14;;;;;;;10.32;5.90;;;;;;;27.14;44.17;97328.72;4994057;28;20061;-65
2021/09/07 10:02:41;;;;;;;10.00;7.00;;;;;;;25.97;43.98;97338.28;4999321;28;20038;-66
2021/09/07 10:05:10;;;;;;;9.88;6.63;;;;;;;24.58;47.04;97333.06;4996920;28;20045;-67
2021/09/07 10:07:35;;;;;;;9.38;6.00;;;;;;;26.61;44.09;97323.16;4998678;28;20042;-67
2021/09/07 10:10:01;;;;;;;11.60;6.50;;;;;;;23.72;50.26;97335.38;5000100;28;20673;-67
2021/09/07 10:12:40;;;;;;;8.98;6.38;;;;;;;24.11;50.85;97333.56;4995701;28;20510;-66
2021/09/07 10:17:53;;;;;;;13.20;6.97;;;;;;;25.10;48.01;97325.47;4997427;28;20184;-65
2021/09/07 10:20:50;;;;;;;11.93;7.95;;;;;;;24.84;52.25;97319.88;4994454;28;20046;-65
2021/09/07 10:25:55;;;;;;;11.77;7.97;;;;;;;25.36;48.85;97310.22;4999876;28;20049;-65
2021/09/07 10:28:42;;;;;;;11.85;6.72;;;;;;;24.66;50.26;97309.22;4995111;28;20068;-65
2021/09/07 10:31:12;;;;;;;12.93;7.07;;;;;;;25.29;50.27;97304.09;4994696;28;20045;-65
2021/09/07 10:33:39;;;;;;;14.40;8.05;;;;;;;26.27;47.73;97305.94;4999371;28;20128;-66
2021/09/07 10:36:22;;;;;;;11.68;6.90;;;;;;;26.08;48.61;97293.75;4994332;28;20038;-66
2021/09/07 10:38:51;;;;;;;11.80;7.47;;;;;;;26.91;46.86;97303.97;4997642;28;20187;-64
2021/09/07 10:41:28;;;;;;;14.50;6.57;;;;;;;27.35;45.74;97295.38;4994406;28;20045;-66
2021/09/07 10:43:56;;;;;;;13.38;6.90;;;;;;;27.12;44.97;97291.84;5000425;28;20125;-65
2021/09/07 10:46:38;;;;;;;11.82;6.95;;;;;;;25.94;48.04;97289.44;4994576;28;20111;-66
2021/09/07 10:49:32;;;;;;;14.52;9.60;;;;;;;26.94;46.56;97278.53;4995511;28;20045;-66
2021/09/07 10:54:33;;;;;;;16.98;7.15;;;;;;;27.04;46.72;97282.13;4997028;28;20514;-66
2021/09/07 10:56:59;;;;;;;10.93;7.20;;;;;;;26.50;47.07;97284.22;4998043;28;20069;-66
2021/09/07 10:59:50;;;;;;;11.45;6.38;;;;;;;26.55;46.88;97280.81;4993120;28;20156;-66
2021/09/07 11:02:34;;;;;;;13.13;7.28;;;;;;;25.75;48.72;97282.88;4993179;28;20068;-65
2021/09/07 11:05:02;;;;;;;23.92;7.90;;;;;;;25.55;49.64;97279.56;4999831;28;20041;-65
2021/09/07 11:07:39;;;;;;;11.25;7.13;;;;;;;25.16;50.86;97278.84;4992189;28;20042;-66
2021/09/07 11:10:05;;;;;;;10.10;6.90;;;;;;;25.31;51.23;97273.56;4991824;28;20046;-67
2021/09/07 11:12:32;;;;;;;11.38;7.85;;;;;;;25.25;50.45;97272.59;4980813;28;20510;-65
2021/09/07 11:15:10;;;;;;;12.88;7.97;;;;;;;25.11;51.36;97271.78;5002750;28;20041;-65
2021/09/07 11:17:47;;;;;;;14.60;9.23;;;;;;;24.39;52.71;97268.38;4996780;28;20112;-65
2021/09/07 11:20:13;;;;;;;16.33;8.63;;;;;;;24.55;52.68;97270.34;4995037;28;20132;-66
2021/09/07 11:22:38;;;;;;;13.98;8.45;;;;;;;24.65;52.49;97270.44;4996524;28;20040;-65
2021/09/07 11:25:15;;;;;;;11.13;7.28;;;;;;;25.28;51.50;97264.06;4996335;28;20057;-66
2021/09/07 11:27:54;;;;;;;11.00;6.95;;;;;;;25.66;49.97;97263.16;4993378;28;20108;-65
2021/09/07 11:30:34;;;;;;;11.60;7.65;;;;;;;25.54;50.77;97261.97;4988513;28;20042;-65
2021/09/07 11:33:07;;;;;;;11.65;7.85;;;;;;;25.73;50.79;97256.50;4998657;28;20050;-64